Time;durP1;ratioP1;P1;durP2;ratioP2;P2;SDS_P1;SDS_P2;PMS_P1;PMS_P2;Temp;Humidity;BMP_temperature;BMP_pressure;BME280_temperature;BME280_humidity;BME280_pressure;Samples;Min_cycle;Max_cycle;Signal;HPM_P1;HPM_P2
2023/08/31 00:01:04;;;;;;;;;;;;;;;22.60;28.63;97143.28;5035046;28;1010;-76
2023/08/31 00:03:30;;;;;;;;;;;;;;;22.52;28.72;97153.34;5035332;28;1054;-77
2023/08/31 00:05:56;;;;;;;;;;;;;;;22.12;29.04;97148.56;5034787;28;1902;-77
2023/08/31 00:08:22;;;;;;;;;;;;;;;22.15;29.24;97147.63;5002327;28;1307;-76
2023/08/31 00:10:54;;;;;;;;;;;;;;;22.18;29.16;97146.72;5037228;28;1137;-76
2023/08/31 00:13:20;;;;;;;;;;;;;;;22.22;29.03;97141.66;5075225;28;1037;-76
2023/08/31 00:15:46;;;;;;;;;;;;;;;22.12;29.01;97140.06;5058471;28;869;-76
2023/08/31 00:18:12;;;;;;;;;;;;;;;22.40;28.63;97134.44;5058589;28;1003;-76
2023/08/31 00:20:38;;;;;;;;;;;;;;;22.47;28.73;97139.78;5058153;28;895;-76
2023/08/31 00:23:03;;;;;;;;;;;;;;;22.62;28.16;97132.25;5074926;28;937;-76
2023/08/31 00:25:29;;;;;;;;;;;;;;;22.60;28.17;97131.94;5041614;28;1156;-77
2023/08/31 00:27:56;;;;;;;;;;;;;;;22.63;28.16;97142.31;5041064;28;1909;-77
2023/08/31 00:30:28;;;;;;;;;;;;;;;22.53;28.29;97144.38;5058072;28;1010;-76
2023/08/31 00:32:53;;;;;;;;;;;;;;;22.63;28.43;97133.81;5054202;28;1055;-76
2023/08/31 00:35:20;;;;;;;;;;;;;;;22.62;28.37;97146.41;5038260;28;1084;-76
2023/08/31 00:37:45;;;;;;;;;;;;;;;22.61;28.33;97139.19;5021466;28;1123;-77
2023/08/31 00:40:13;;;;;;;;;;;;;;;22.71;28.01;97149.25;5053860;28;895;-77
2023/08/31 00:42:39;;;;;;;;;;;;;;;22.67;28.27;97154.28;5037522;28;1264;-77
2023/08/31 00:45:05;;;;;;;;;;;;;;;22.20;28.89;97155.50;5037958;28;975;-76
2023/08/31 00:47:31;;;;;;;;;;;;;;;22.29;29.14;97157.59;5054122;28;1969;-76
2023/08/31 00:49:58;;;;;;;;;;;;;;;22.24;29.02;97164.66;5014438;28;1318;-76
2023/08/31 00:52:24;;;;;;;;;;;;;;;22.36;28.78;97166.56;4999037;28;989;-76
2023/08/31 00:54:50;;;;;;;;;;;;;;;22.38;28.84;97166.09;4998422;28;993;-76
2023/08/31 00:57:17;;;;;;;;;;;;;;;22.32;28.92;97165.91;4982295;28;1118;-76
2023/08/31 00:59:42;;;;;;;;;;;;;;;22.51;28.50;97177.28;4998307;28;1143;-76
2023/08/31 01:02:13;;;;;;;;;;;;;;;22.46;28.80;97172.25;5014813;28;859;-76
2023/08/31 01:04:49;;;;;;;;;;;;;;;22.45;28.64;97182.00;4959243;28;1139;-76
2023/08/31 01:07:32;;;;;;;;;;;;;;;22.55;28.52;97180.75;4959723;28;1910;-76
2023/08/31 01:10:07;;;;;;;;;;;;;;;22.64;28.53;97177.94;4989191;28;1136;-76
2023/08/31 01:12:33;;;;;;;;;;;;;;;22.26;29.07;97176.31;4998019;28;1552;-76
2023/08/31 01:15:07;;;;;;;;;;;;;;;22.55;28.50;97180.75;4955956;29;931;-76
2023/08/31 01:17:36;;;;;;;;;;;;;;;22.49;28.68;97182.66;4924472;29;1129;-76
2023/08/31 01:20:03;;;;;;;;;;;;;;;22.07;29.36;97180.31;4929699;28;1111;-76
2023/08/31 01:22:36;;;;;;;;;;;;;;;22.20;29.08;97200.84;4978505;28;1029;-76
2023/08/31 01:25:04;;;;;;;;;;;;;;;22.56;28.64;97199.34;4978707;28;1011;-77
2023/08/31 01:27:32;;;;;;;;;;;;;;;22.45;28.63;97210.34;4995228;28;1918;-76
2023/08/31 01:29:58;;;;;;;;;;;;;;;22.21;28.95;97199.59;4994890;28;1075;-76
2023/08/31 01:32:23;;;;;;;;;;;;;;;22.43;28.49;97207.19;4978788;28;972;-77
2023/08/31 01:34:52;;;;;;;;;;;;;;;22.20;29.22;97206.53;4985178;28;914;-76
2023/08/31 01:37:21;;;;;;;;;;;;;;;22.38;28.77;97207.81;5034341;28;1133;-76
2023/08/31 01:39:48;;;;;;;;;;;;;;;22.53;28.66;97201.06;5033951;28;1098;-76
2023/08/31 01:42:15;;;;;;;;;;;;;;;22.68;28.34;97204.06;5017847;28;1003;-76
2023/08/31 01:44:41;;;;;;;;;;;;;;;22.64;28.27;97211.97;5018190;28;1142;-76
2023/08/31 01:47:06;;;;;;;;;;;;;;;22.39;28.71;97209.41;5076052;28;1971;-76
2023/08/31 01:49:41;;;;;;;;;;;;;;;22.23;28.98;97202.75;5077444;28;985;-76
2023/08/31 01:52:07;;;;;;;;;;;;;;;22.27;28.88;97200.53;5061523;28;1095;-76
2023/08/31 01:54:32;;;;;;;;;;;;;;;22.32;28.72;97208.44;5057873;28;1233;-76
2023/08/31 01:56:58;;;;;;;;;;;;;;;22.54;28.54;97204.72;5024540;28;1265;-76
2023/08/31 01:59:24;;;;;;;;;;;;;;;22.67;28.21;97205.34;5040932;28;1214;-76
2023/08/31 02:01:50;;;;;;;;;;;;;;;22.52;28.47;97204.38;5040905;28;1178;-76
2023/08/31 02:04:16;;;;;;;;;;;;;;;22.61;28.48;97201.56;5040750;28;1193;-76
2023/08/31 02:06:42;;;;;;;;;;;;;;;22.38;28.77;97202.94;4981367;28;1979;-76
2023/08/31 02:09:08;;;;;;;;;;;;;;;22.34;28.66;97200.25;4965662;28;1121;-76
2023/08/31 02:11:37;;;;;;;;;;;;;;;22.46;28.43;97200.59;4965381;28;1318;-76
2023/08/31 02:14:07;;;;;;;;;;;;;;;22.33;28.46;97195.06;4981904;28;1016;-76
2023/08/31 02:16:33;;;;;;;;;;;;;;;22.23;28.94;97199.16;4997679;28;1046;-76
2023/08/31 02:18:58;;;;;;;;;;;;;;;22.47;28.26;97196.50;4949437;28;1118;-75
2023/08/31 02:21:24;;;;;;;;;;;;;;;22.72;28.06;97201.09;4997798;28;1028;-76
2023/08/31 02:23:52;;;;;;;;;;;;;;;22.35;28.63;97201.84;4978126;28;1216;-77
2023/08/31 02:26:17;;;;;;;;;;;;;;;22.36;28.70;97196.94;4994007;28;1906;-76
2023/08/31 02:28:45;;;;;;;;;;;;;;;22.43;28.27;97195.84;4978041;28;1474;-76
2023/08/31 02:31:13;;;;;;;;;;;;;;;22.33;28.44;97197.91;4978009;28;992;-76
2023/08/31 02:33:38;;;;;;;;;;;;;;;22.49;28.26;97199.66;4961873;28;1360;-76
2023/08/31 02:36:04;;;;;;;;;;;;;;;22.24;28.81;97201.50;4961735;28;913;-77
2023/08/31 02:38:30;;;;;;;;;;;;;;;22.18;28.95;97203.38;4994669;28;1187;-76
2023/08/31 02:40:55;;;;;;;;;;;;;;;22.45;28.37;97216.03;5000725;28;1214;-76
2023/08/31 02:43:21;;;;;;;;;;;;;;;22.39;28.64;97212.25;5000827;28;900;-76
2023/08/31 02:45:48;;;;;;;;;;;;;;;22.52;28.21;97198.69;5000615;28;1171;-77
2023/08/31 02:48:14;;;;;;;;;;;;;;;22.55;28.35;97209.13;4996998;28;1906;-76
2023/08/31 02:50:41;;;;;;;;;;;;;;;22.40;28.67;97208.16;4980978;28;1194;-76
2023/08/31 02:53:06;;;;;;;;;;;;;;;22.45;28.44;97210.34;4981046;28;1043;-76
2023/08/31 02:55:32;;;;;;;;;;;;;;;22.47;28.49;97219.16;5028763;28;1194;-77
2023/08/31 02:57:58;;;;;;;;;;;;;;;22.46;28.45;97209.09;5036617;28;958;-76
2023/08/31 03:00:23;;;;;;;;;;;;;;;22.66;28.20;97209.44;5020039;28;1203;-77
2023/08/31 03:02:52;;;;;;;;;;;;;;;22.17;29.06;97213.13;5019462;28;814;-76
2023/08/31 03:05:18;;;;;;;;;;;;;;;22.45;28.59;97210.34;5021590;28;1198;-77
2023/08/31 03:07:43;;;;;;;;;;;;;;;22.46;28.35;97212.72;5055993;28;1971;-76
2023/08/31 03:10:10;;;;;;;;;;;;;;;22.27;28.99;97211.88;5055541;28;1640;-77
2023/08/31 03:12:35;;;;;;;;;;;;;;;22.25;29.03;97208.75;5055661;28;1251;-77
2023/08/31 03:15:01;;;;;;;;;;;;;;;22.19;28.93;97204.94;5022571;28;1301;-77
2023/08/31 03:17:27;;;;;;;;;;;;;;;22.22;29.01;97209.66;5039156;28;913;-78
2023/08/31 03:19:52;;;;;;;;;;;;;;;22.22;28.85;97209.66;5055512;28;1157;-76
2023/08/31 03:22:18;;;;;;;;;;;;;;;22.36;28.79;97214.75;5039190;28;954;-77
2023/08/31 03:24:44;;;;;;;;;;;;;;;22.59;28.50;97212.59;5058359;28;1178;-76
2023/08/31 03:27:09;;;;;;;;;;;;;;;22.22;29.25;97215.34;5078374;28;1909;-77
2023/08/31 03:29:35;;;;;;;;;;;;;;;22.61;28.70;97218.56;5039258;28;1015;-76
2023/08/31 03:32:01;;;;;;;;;;;;;;;22.65;28.48;97219.22;5055954;28;994;-77
2023/08/31 03:34:30;;;;;;;;;;;;;;;22.30;28.99;97216.63;4979842;28;1084;-76
2023/08/31 03:36:56;;;;;;;;;;;;;;;22.18;29.06;97209.03;4980111;28;1167;-76
2023/08/31 03:39:22;;;;;;;;;;;;;;;22.47;28.91;97213.50;4956895;29;1297;-76
2023/08/31 03:41:47;;;;;;;;;;;;;;;22.34;29.10;97211.59;4941114;29;1229;-77
2023/08/31 03:44:13;;;;;;;;;;;;;;;22.50;28.70;97218.25;4957206;29;1121;-77
2023/08/31 03:46:40;;;;;;;;;;;;;;;22.41;28.75;97221.84;4957267;29;1902;-76
2023/08/31 03:49:05;;;;;;;;;;;;;;;22.19;28.97;97216.28;4957593;29;1181;-76
2023/08/31 03:51:31;;;;;;;;;;;;;;;22.40;28.69;97219.47;4941510;29;1353;-76
2023/08/31 03:53:57;;;;;;;;;;;;;;;22.11;29.30;97220.66;4957607;29;1417;-77
2023/08/31 03:56:22;;;;;;;;;;;;;;;22.12;28.94;97216.56;4957352;29;1239;-77
2023/08/31 03:58:48;;;;;;;;;;;;;;;21.98;29.35;97228.47;4957196;28;1060;-76
2023/08/31 04:01:14;;;;;;;;;;;;;;;22.15;29.14;97229.81;4972290;28;1155;-77
2023/08/31 04:03:43;;;;;;;;;;;;;;;22.38;28.85;97228.44;4976419;28;1096;-77
2023/08/31 04:06:09;;;;;;;;;;;;;;;22.40;28.88;97240.13;5006970;28;1962;-77
2023/08/31 04:08:34;;;;;;;;;;;;;;;21.97;29.41;97243.88;5015285;28;1298;-76
2023/08/31 04:11:03;;;;;;;;;;;;;;;22.30;29.02;97242.13;5015018;28;1231;-77
2023/08/31 04:13:28;;;;;;;;;;;;;;;22.24;29.14;97246.84;5022123;28;1228;-78
2023/08/31 04:15:54;;;;;;;;;;;;;;;22.47;28.74;97253.97;5028889;28;977;-77
2023/08/31 04:18:20;;;;;;;;;;;;;;;22.63;28.46;97267.06;4978904;28;904;-77
2023/08/31 04:20:50;;;;;;;;;;;;;;;22.22;28.91;97272.00;4979369;28;1287;-77
2023/08/31 04:23:16;;;;;;;;;;;;;;;22.26;28.74;97269.81;4979494;28;993;-76
2023/08/31 04:25:42;;;;;;;;;;;;;;;22.04;29.33;97277.59;4979155;28;969;-77
2023/08/31 04:28:07;;;;;;;;;;;;;;;22.15;29.05;97277.97;4978571;28;1971;-77
2023/08/31 04:30:33;;;;;;;;;;;;;;;22.21;28.79;97275.31;4998736;28;1062;-77
2023/08/31 04:33:00;;;;;;;;;;;;;;;22.41;28.56;97274.91;5014753;28;1044;-77
2023/08/31 04:35:25;;;;;;;;;;;;;;;22.40;28.47;97276.97;5015185;28;871;-77
2023/08/31 04:37:51;;;;;;;;;;;;;;;22.25;28.84;97278.78;5014979;28;933;-77
2023/08/31 04:40:16;;;;;;;;;;;;;;;22.38;28.62;97284.34;5002514;28;1059;-77
2023/08/31 04:42:42;;;;;;;;;;;;;;;22.38;28.56;97284.34;4998633;28;813;-76
2023/08/31 04:45:08;;;;;;;;;;;;;;;22.69;27.98;97287.91;5044760;28;1006;-77
2023/08/31 04:47:34;;;;;;;;;;;;;;;22.21;28.84;97281.78;5057720;28;1909;-77
2023/08/31 04:49:59;;;;;;;;;;;;;;;22.31;28.73;97286.22;5074581;28;958;-77
2023/08/31 04:52:25;;;;;;;;;;;;;;;22.32;28.62;97281.34;5057557;28;1594;-77
2023/08/31 04:54:50;;;;;;;;;;;;;;;22.36;28.65;97277.09;5057430;28;926;-77
2023/08/31 04:57:16;;;;;;;;;;;;;;;22.42;28.25;97285.78;5074073;28;820;-77
2023/08/31 04:59:41;;;;;;;;;;;;;;;22.53;28.18;97293.84;5074180;28;924;-77
2023/08/31 05:02:07;;;;;;;;;;;;;;;22.38;28.50;97302.13;5053566;28;1397;-77
2023/08/31 05:04:33;;;;;;;;;;;;;;;22.53;28.23;97303.13;5035372;28;987;-77
2023/08/31 05:06:58;;;;;;;;;;;;;;;22.67;27.95;97301.75;5034123;28;1915;-77
2023/08/31 05:09:24;;;;;;;;;;;;;;;22.70;27.79;97311.38;5034521;28;876;-76
2023/08/31 05:11:50;;;;;;;;;;;;;;;22.58;28.17;97299.66;5033916;28;1130;-78
2023/08/31 05:14:15;;;;;;;;;;;;;;;22.68;27.92;97308.22;5017620;28;1083;-76
2023/08/31 05:16:41;;;;;;;;;;;;;;;22.60;28.20;97307.72;5034499;28;986;-77
2023/08/31 05:19:07;;;;;;;;;;;;;;;22.63;27.96;97306.78;5043933;28;1159;-76
2023/08/31 05:21:33;;;;;;;;;;;;;;;22.44;28.15;97302.34;5074148;28;918;-77
2023/08/31 05:23:58;;;;;;;;;;;;;;;22.18;28.71;97316.72;5073948;28;1005;-76
2023/08/31 05:26:24;;;;;;;;;;;;;;;22.52;28.25;97317.78;5073824;28;1909;-77
2023/08/31 05:28:49;;;;;;;;;;;;;;;22.23;28.58;97318.16;5078178;28;996;-76
2023/08/31 05:31:15;;;;;;;;;;;;;;;22.15;28.88;97320.47;5078157;28;1091;-79
2023/08/31 05:33:40;;;;;;;;;;;;;;;22.21;28.65;97317.81;5061791;28;843;-77
2023/08/31 05:36:06;;;;;;;;;;;;;;;22.09;29.06;97313.81;5061603;28;715;-77
2023/08/31 05:38:32;;;;;;;;;;;;;;;22.20;28.75;97308.53;5061999;28;926;-77
2023/08/31 05:41:03;;;;;;;;;;;;;;;22.21;28.94;97303.66;5079286;28;786;-77
2023/08/31 05:43:29;;;;;;;;;;;;;;;22.38;28.46;97307.00;5079468;28;868;-77
2023/08/31 05:45:54;;;;;;;;;;;;;;;22.52;28.54;97318.56;5079176;28;793;-77
2023/08/31 05:48:20;;;;;;;;;;;;;;;22.39;28.76;97319.94;5080408;28;1974;-77
2023/08/31 05:50:45;;;;;;;;;;;;;;;22.32;28.73;97321.78;5080416;28;766;-77
2023/08/31 05:53:11;;;;;;;;;;;;;;;22.19;29.42;97317.50;5079213;28;878;-77
2023/08/31 05:55:37;;;;;;;;;;;;;;;22.46;28.95;97331.78;5078916;28;884;-78
2023/08/31 05:58:02;;;;;;;;;;;;;;;22.17;29.71;97325.66;5078810;28;836;-77
2023/08/31 06:00:28;;;;;;;;;;;;;;;22.00;29.88;97327.91;5078946;28;793;-77
2023/08/31 06:02:53;;;;;;;;;;;;;;;22.25;29.87;97341.94;5079911;28;894;-77
2023/08/31 06:05:19;;;;;;;;;;;;;;;22.52;29.44;97337.63;5079109;28;862;-77
2023/08/31 06:07:45;;;;;;;;;;;;;;;22.14;29.89;97340.78;5078693;28;1910;-78
2023/08/31 06:10:11;;;;;;;;;;;;;;;22.55;29.71;97342.38;5078154;28;1172;-78
2023/08/31 06:12:36;;;;;;;;;;;;;;;22.57;29.65;97354.03;5078273;28;881;-78
2023/08/31 06:15:02;;;;;;;;;;;;;;;22.28;30.37;97352.34;5078252;28;812;-78
2023/08/31 06:17:28;;;;;;;;;;;;;;;22.47;29.76;97352.41;5061142;28;1122;-78
2023/08/31 06:19:54;;;;;;;;;;;;;;;22.73;29.46;97353.75;5078440;28;802;-78
2023/08/31 06:22:21;;;;;;;;;;;;;;;22.52;29.93;97361.09;5079629;28;889;-77
2023/08/31 06:24:47;;;;;;;;;;;;;;;22.25;30.52;97361.78;5078351;28;900;-78
2023/08/31 06:27:13;;;;;;;;;;;;;;;22.27;30.55;97364.91;5078638;28;1913;-78
2023/08/31 06:29:38;;;;;;;;;;;;;;;22.25;30.49;97366.66;5078117;28;849;-78
2023/08/31 06:32:04;;;;;;;;;;;;;;;22.48;30.20;97379.50;5078456;28;1150;-78
2023/08/31 06:34:30;;;;;;;;;;;;;;;22.44;30.08;97384.53;5077910;28;766;-78
2023/08/31 06:36:58;;;;;;;;;;;;;;;22.55;29.69;97385.69;5078598;28;797;-78
2023/08/31 06:39:23;;;;;;;;;;;;;;;22.44;30.18;97385.31;5076477;28;892;-78
2023/08/31 06:41:49;;;;;;;;;;;;;;;22.70;29.73;97390.78;5061517;28;784;-78
2023/08/31 06:44:15;;;;;;;;;;;;;;;22.66;29.80;97379.56;5078055;28;951;-78
2023/08/31 06:46:40;;;;;;;;;;;;;;;22.54;29.86;97389.00;5078977;28;1968;-78
2023/08/31 06:49:06;;;;;;;;;;;;;;;22.56;29.96;97383.63;5060816;28;1240;-78
2023/08/31 06:51:32;;;;;;;;;;;;;;;22.60;29.78;97392.78;5078233;28;818;-78
2023/08/31 06:54:05;;;;;;;;;;;;;;;22.41;29.93;97396.81;5077345;28;786;-78
2023/08/31 06:56:32;;;;;;;;;;;;;;;22.39;29.73;97396.47;5079231;28;762;-77
2023/08/31 06:58:58;;;;;;;;;;;;;;;22.38;29.99;97392.03;5077914;28;746;-78
2023/08/31 07:01:23;;;;;;;;;;;;;;;22.36;29.92;97390.47;5079221;28;825;-78
2023/08/31 07:03:49;;;;;;;;;;;;;;;22.46;29.93;97388.47;5078664;28;810;-78
2023/08/31 07:06:14;;;;;;;;;;;;;;;22.37;30.14;97385.59;5060909;28;1906;-78
2023/08/31 07:08:41;;;;;;;;;;;;;;;22.35;30.20;97383.22;5077051;28;738;-78
2023/08/31 07:11:07;;;;;;;;;;;;;;;22.21;30.25;97389.44;5059742;28;1117;-78
2023/08/31 07:13:33;;;;;;;;;;;;;;;22.42;30.03;97395.53;5076477;28;937;-78
2023/08/31 07:15:58;;;;;;;;;;;;;;;22.23;30.49;97403.97;5043641;28;1252;-78
2023/08/31 07:18:24;;;;;;;;;;;;;;;22.54;29.97;97411.69;5060058;28;1193;-78
2023/08/31 07:20:50;;;;;;;;;;;;;;;22.71;29.66;97409.38;5076347;28;936;-78
2023/08/31 07:23:15;;;;;;;;;;;;;;;22.53;30.08;97404.41;5059704;28;1332;-78
2023/08/31 07:25:42;;;;;;;;;;;;;;;22.56;30.10;97394.97;5059777;28;828;-78
2023/08/31 07:28:07;;;;;;;;;;;;;;;22.67;30.12;97409.50;5076084;28;1901;-78
2023/08/31 07:30:33;;;;;;;;;;;;;;;22.56;30.06;97403.47;5059824;28;1084;-78
2023/08/31 07:36:33;;;;;;;;;;;;;;;22.30;30.61;97400.84;5056009;28;954;-78
2023/08/31 07:38:58;;;;;;;;;;;;;;;22.37;30.61;97402.59;5055821;28;1015;-78
2023/08/31 07:41:24;;;;;;;;;;;;;;;22.67;30.03;97403.06;5056662;28;975;-78
2023/08/31 07:43:50;;;;;;;;;;;;;;;22.84;29.62;97407.19;5057662;28;944;-78
2023/08/31 07:46:15;;;;;;;;;;;;;;;22.73;29.70;97404.81;5057067;28;1909;-78
2023/08/31 07:48:41;;;;;;;;;;;;;;;22.72;29.91;97408.13;5058075;28;739;-78
2023/08/31 07:51:07;;;;;;;;;;;;;;;22.28;30.55;97417.53;5035272;28;1138;-78
2023/08/31 07:53:33;;;;;;;;;;;;;;;22.33;30.61;97410.47;5056019;28;1182;-78
2023/08/31 07:55:58;;;;;;;;;;;;;;;22.46;30.35;97410.38;5056237;28;1292;-78
2023/08/31 07:58:25;;;;;;;;;;;;;;;22.80;29.63;97413.03;5036269;28;1221;-78
2023/08/31 08:00:54;;;;;;;;;;;;;;;22.57;29.94;97422.84;5036719;28;886;-78
2023/08/31 08:03:20;;;;;;;;;;;;;;;22.54;30.36;97418.13;5053073;28;738;-78
2023/08/31 08:05:46;;;;;;;;;;;;;;;22.84;29.89;97415.72;5053150;28;1267;-78
2023/08/31 08:08:12;;;;;;;;;;;;;;;22.81;29.48;97411.78;5036595;28;1969;-78
2023/08/31 08:10:38;;;;;;;;;;;;;;;22.61;30.20;97417.84;5020658;28;1065;-78
2023/08/31 08:13:04;;;;;;;;;;;;;;;22.61;30.11;97411.38;5037567;28;896;-78
2023/08/31 08:15:29;;;;;;;;;;;;;;;22.47;30.16;97409.91;5052773;28;727;-78
2023/08/31 08:17:57;;;;;;;;;;;;;;;22.51;30.20;97413.38;5036109;28;852;-78
2023/08/31 08:20:22;;;;;;;;;;;;;;;23.04;29.64;97416.13;5035644;28;1233;-78
2023/08/31 08:22:51;;;;;;;;;;;;;;;22.93;29.64;97409.31;5036553;28;828;-78
2023/08/31 08:25:18;;;;;;;;;;;;;;;22.48;30.42;97407.84;5036574;28;782;-78
2023/08/31 08:27:44;;;;;;;;;;;;;;;22.68;29.94;97408.25;5018645;28;1930;-78
2023/08/31 08:30:11;;;;;;;;;;;;;;;22.92;29.92;97410.56;5036242;28;1036;-78
2023/08/31 08:32:37;;;;;;;;;;;;;;;22.62;30.16;97408.06;5018816;28;783;-78
2023/08/31 08:35:03;;;;;;;;;;;;;;;22.67;30.22;97415.19;5036457;28;1097;-78
2023/08/31 08:37:29;;;;;;;;;;;;;;;22.79;30.01;97407.81;5036430;28;1299;-78
2023/08/31 08:39:54;;;;;;;;;;;;;;;22.87;29.75;97418.41;5035114;28;857;-78
2023/08/31 08:42:20;;;;;;;;;;;;;;;22.94;29.77;97410.88;5035047;28;938;-78
2023/08/31 08:44:46;;;;;;;;;;;;;;;22.65;30.41;97417.72;5015221;28;887;-78
2023/08/31 08:47:11;;;;;;;;;;;;;;;22.73;30.36;97421.03;4998634;28;1911;-78
2023/08/31 08:49:37;;;;;;;;;;;;;;;22.71;30.32;97427.19;5015072;28;802;-78
2023/08/31 08:52:03;;;;;;;;;;;;;;;22.71;30.44;97427.19;5015377;28;1072;-78
2023/08/31 08:54:28;;;;;;;;;;;;;;;22.62;30.48;97429.97;5015235;28;874;-78
2023/08/31 08:56:54;;;;;;;;;;;;;;;22.71;30.41;97426.38;5015656;28;1145;-78
2023/08/31 08:59:19;;;;;;;;;;;;;;;22.40;31.00;97429.25;5015246;28;914;-78
2023/08/31 09:01:45;;;;;;;;;;;;;;;22.61;30.62;97428.41;5014416;28;779;-78
2023/08/31 09:04:11;;;;;;;;;;;;;;;22.63;30.53;97423.03;5015061;28;947;-79
2023/08/31 09:06:36;;;;;;;;;;;;;;;22.44;31.07;97432.72;5014997;28;1922;-79
2023/08/31 09:09:03;;;;;;;;;;;;;;;22.72;30.63;97428.75;5015294;28;1120;-79
2023/08/31 09:11:29;;;;;;;;;;;;;;;22.72;30.38;97434.44;5015340;28;1175;-79
2023/08/31 09:13:54;;;;;;;;;;;;;;;22.62;30.49;97432.81;4998529;28;1111;-78
2023/08/31 09:16:28;;;;;;;;;;;;;;;22.77;30.32;97428.13;4998501;28;1226;-79
2023/08/31 09:18:54;;;;;;;;;;;;;;;22.90;30.09;97427.25;5015063;28;925;-79
2023/08/31 09:21:20;;;;;;;;;;;;;;;22.95;29.89;97429.47;5014952;28;805;-79
2023/08/31 09:23:58;;;;;;;;;;;;;;;22.60;30.63;97421.16;5018011;28;963;-80
2023/08/31 09:26:23;;;;;;;;;;;;;;;22.79;30.15;97424.84;5002078;28;1910;-79
2023/08/31 09:28:49;;;;;;;;;;;;;;;22.74;30.50;97420.59;5018696;28;834;-78
2023/08/31 09:31:14;;;;;;;;;;;;;;;22.77;30.41;97425.31;5002120;28;1010;-79
2023/08/31 09:33:43;;;;;;;;;;;;;;;22.83;30.49;97423.44;5001823;28;805;-78
2023/08/31 09:36:08;;;;;;;;;;;;;;;22.84;30.41;97425.00;5032636;28;992;-79
2023/08/31 09:38:41;;;;;;;;;;;;;;;22.83;30.53;97417.75;4978972;28;1147;-78
2023/08/31 09:41:06;;;;;;;;;;;;;;;22.84;30.46;97425.00;4979097;28;894;-78
2023/08/31 09:43:32;;;;;;;;;;;;;;;22.98;30.18;97422.88;4962953;28;1333;-79
2023/08/31 09:45:58;;;;;;;;;;;;;;;22.88;30.34;97431.34;4980004;28;866;-79
2023/08/31 09:48:23;;;;;;;;;;;;;;;22.90;30.43;97447.13;4978923;28;1993;-79
2023/08/31 09:50:49;;;;;;;;;;;;;;;22.57;30.90;97436.25;4979123;28;836;-79
2023/08/31 09:53:16;;;;;;;;;;;;;;;23.04;30.13;97438.03;4962739;28;1259;-79
2023/08/31 09:55:41;;;;;;;;;;;;;;;23.07;29.80;97434.25;5012506;28;914;-79
2023/08/31 09:58:07;;;;;;;;;;;;;;;22.72;30.51;97437.25;4978764;28;1257;-79
2023/08/31 10:00:35;;;;;;;;;;;;;;;22.81;30.55;97442.97;4995457;28;1190;-78
2023/08/31 10:03:01;;;;;;;;;;;;;;;22.86;30.33;97439.53;4994999;28;917;-78
2023/08/31 10:05:27;;;;;;;;;;;;;;;22.82;30.41;97444.56;4995326;28;723;-78
2023/08/31 10:07:52;;;;;;;;;;;;;;;22.83;30.49;97440.44;4995130;28;1922;-78
2023/08/31 10:10:18;;;;;;;;;;;;;;;22.77;30.61;97436.66;5027256;28;1202;-78
2023/08/31 10:12:45;;;;;;;;;;;;;;;22.76;30.57;97443.59;5018398;28;910;-79
2023/08/31 10:15:11;;;;;;;;;;;;;;;22.70;30.93;97444.66;5038005;28;932;-78
2023/08/31 10:17:37;;;;;;;;;;;;;;;22.75;30.50;97449.72;5021255;28;1330;-80
2023/08/31 10:20:02;;;;;;;;;;;;;;;23.08;30.17;97450.81;5021204;28;834;-79
2023/08/31 10:22:29;;;;;;;;;;;;;;;22.66;30.94;97446.84;5021420;28;774;-79
2023/08/31 10:25:03;;;;;;;;;;;;;;;22.28;31.11;97451.53;5037522;28;882;-79
2023/08/31 10:27:36;;;;;;;;;;;;;;;22.05;31.57;97449.91;5037642;28;1975;-79
2023/08/31 10:30:22;;;;;;;;;;;;;;;22.03;31.60;97457.31;5039078;28;831;-79
2023/08/31 10:33:06;;;;;;;;;;;;;;;21.86;31.45;97453.88;5017641;28;931;-80
2023/08/31 10:35:41;;;;;;;;;;;;;;;21.86;31.47;97453.88;5001200;28;930;-79
2023/08/31 10:38:13;;;;;;;;;;;;;;;22.04;31.72;97456.06;5001142;28;946;-78
2023/08/31 10:40:39;;;;;;;;;;;;;;;21.95;31.79;97456.00;4984821;28;1132;-79
2023/08/31 10:43:16;;;;;;;;;;;;;;;22.21;31.37;97460.28;5000916;28;1047;-79
2023/08/31 10:45:45;;;;;;;;;;;;;;;22.28;31.16;97451.53;4984905;28;839;-79
2023/08/31 10:48:11;;;;;;;;;;;;;;;22.30;31.21;97448.22;4987066;28;1963;-78
2023/08/31 10:50:42;;;;;;;;;;;;;;;22.34;30.71;97444.00;4997770;28;1006;-78
2023/08/31 10:53:08;;;;;;;;;;;;;;;22.65;30.55;97440.41;4980959;28;994;-78
2023/08/31 10:55:34;;;;;;;;;;;;;;;22.75;30.15;97436.34;4965046;28;963;-79
2023/08/31 10:57:59;;;;;;;;;;;;;;;22.72;30.17;97439.31;4981345;28;986;-79
2023/08/31 11:00:44;;;;;;;;;;;;;;;22.67;30.38;97443.53;4997490;28;816;-78
2023/08/31 11:03:12;;;;;;;;;;;;;;;22.69;30.50;97441.03;4997271;28;1227;-78
2023/08/31 11:05:37;;;;;;;;;;;;;;;22.84;30.31;97447.69;4981189;28;1027;-78
2023/08/31 11:08:03;;;;;;;;;;;;;;;22.83;30.10;97445.34;4994800;28;1982;-79
2023/08/31 11:10:29;;;;;;;;;;;;;;;22.74;30.16;97448.94;5028437;28;1611;-79
2023/08/31 11:12:56;;;;;;;;;;;;;;;22.87;30.06;97452.44;5036323;28;974;-79
2023/08/31 11:15:22;;;;;;;;;;;;;;;22.63;30.49;97440.06;5020361;28;1149;-79
2023/08/31 11:17:49;;;;;;;;;;;;;;;22.98;30.01;97451.25;5019827;28;913;-79
2023/08/31 11:20:16;;;;;;;;;;;;;;;22.73;30.30;97444.50;5020490;28;931;-76
2023/08/31 11:22:42;;;;;;;;;;;;;;;22.53;30.67;97458.28;5019826;28;1193;-76
2023/08/31 11:25:11;;;;;;;;;;;;;;;22.38;30.87;97458.03;5002903;28;896;-76
2023/08/31 11:27:37;;;;;;;;;;;;;;;22.55;30.71;97458.63;5036416;28;1980;-76
2023/08/31 11:30:04;;;;;;;;;;;;;;;22.90;29.84;97456.44;4996646;28;874;-76
2023/08/31 11:32:29;;;;;;;;;;;;;;;22.85;30.09;97460.66;4996603;28;1008;-76
2023/08/31 11:34:55;;;;;;;;;;;;;;;22.65;30.32;97457.41;4996458;28;908;-77
2023/08/31 11:37:20;;;;;;;;;;;;;;;22.40;30.64;97468.94;4996525;28;926;-76
2023/08/31 11:39:52;;;;;;;;;;;;;;;22.51;30.47;97469.28;4996731;28;880;-76
2023/08/31 11:42:19;;;;;;;;;;;;;;;22.67;30.42;97466.22;4997140;28;971;-76
2023/08/31 11:44:47;;;;;;;;;;;;;;;22.85;29.72;97465.53;4999807;28;939;-76
2023/08/31 11:47:13;;;;;;;;;;;;;;;22.86;30.00;97467.91;4996730;28;1984;-76
2023/08/31 11:49:39;;;;;;;;;;;;;;;22.95;29.63;97474.88;4996367;28;1131;-77
2023/08/31 11:52:05;;;;;;;;;;;;;;;22.82;30.04;97475.75;4980318;28;942;-76
2023/08/31 11:54:30;;;;;;;;;;;;;;;22.84;29.81;97459.03;4980084;28;1148;-76
2023/08/31 11:56:56;;;;;;;;;;;;;;;22.71;30.18;97466.88;4980383;28;1224;-76
2023/08/31 11:59:22;;;;;;;;;;;;;;;22.76;29.99;97469.13;4996206;28;1140;-76
2023/08/31 12:01:50;;;;;;;;;;;;;;;22.84;30.02;97470.38;4996198;28;994;-76
2023/08/31 12:04:17;;;;;;;;;;;;;;;22.76;29.72;97454.94;4995818;28;1018;-77
2023/08/31 12:06:45;;;;;;;;;;;;;;;22.86;29.78;97462.22;5000358;28;1993;-76
2023/08/31 12:09:11;;;;;;;;;;;;;;;22.92;29.55;97453.13;5016206;28;908;-76
2023/08/31 12:11:37;;;;;;;;;;;;;;;22.78;29.90;97460.91;4999146;28;1598;-76
2023/08/31 12:14:06;;;;;;;;;;;;;;;22.75;30.08;97461.06;5016079;28;991;-76
2023/08/31 12:16:32;;;;;;;;;;;;;;;22.86;29.78;97464.28;4996053;28;1104;-77
2023/08/31 12:19:04;;;;;;;;;;;;;;;22.62;30.31;97466.84;4979950;28;939;-76
2023/08/31 12:21:30;;;;;;;;;;;;;;;22.47;30.42;97468.63;5029932;28;865;-76
2023/08/31 12:23:56;;;;;;;;;;;;;;;22.65;30.28;97457.41;5019014;28;876;-76
2023/08/31 12:26:22;;;;;;;;;;;;;;;22.60;30.48;97455.19;5018782;28;1968;-76
2023/08/31 12:28:48;;;;;;;;;;;;;;;22.71;30.04;97454.75;5019413;28;1014;-76
2023/08/31 12:31:14;;;;;;;;;;;;;;;22.94;29.82;97462.75;5035404;28;903;-77
2023/08/31 12:33:39;;;;;;;;;;;;;;;22.80;29.67;97452.75;4995540;28;878;-76
2023/08/31 12:36:05;;;;;;;;;;;;;;;22.88;29.78;97454.06;4995991;28;1029;-76
2023/08/31 12:38:31;;;;;;;;;;;;;;;22.87;29.74;97457.34;4995771;28;965;-77
2023/08/31 12:40:57;;;;;;;;;;;;;;;23.01;29.28;97450.34;4995978;28;1027;-77
2023/08/31 12:43:22;;;;;;;;;;;;;;;22.79;29.84;97450.34;4995485;28;853;-76
2023/08/31 12:45:48;;;;;;;;;;;;;;;22.86;29.80;97450.88;4979118;28;996;-77
2023/08/31 12:48:13;;;;;;;;;;;;;;;22.84;29.94;97447.69;5010890;28;1977;-76
2023/08/31 12:50:39;;;;;;;;;;;;;;;22.65;30.01;97440.41;5015375;28;1364;-76
2023/08/31 12:53:04;;;;;;;;;;;;;;;22.50;30.25;97439.38;5015391;28;922;-77
2023/08/31 12:55:30;;;;;;;;;;;;;;;22.75;29.91;97442.00;5015072;28;1025;-77
2023/08/31 12:57:56;;;;;;;;;;;;;;;22.77;29.95;97447.22;5015091;28;947;-77
2023/08/31 13:00:21;;;;;;;;;;;;;;;22.21;30.80;97448.97;5015440;28;945;-76
2023/08/31 13:02:47;;;;;;;;;;;;;;;22.21;30.85;97454.63;5015017;28;909;-77